createdAt,value
2023-02-27T00:00:54.849Z,1013.02
2023-02-27T00:01:53.813Z,1013.03
2023-02-27T00:02:53.885Z,1013.04
2023-02-27T00:03:53.996Z,1013.02
2023-02-27T00:04:53.832Z,1013.04
2023-02-27T00:05:53.781Z,1013.03
2023-02-27T00:06:53.771Z,1013.09
2023-02-27T00:07:54.759Z,1013.07
2023-02-27T00:08:53.797Z,1013.07
2023-02-27T00:09:53.765Z,1012.97
2023-02-27T00:10:53.754Z,1013.05
2023-02-27T00:11:53.717Z,1013.01
2023-02-27T00:12:53.809Z,1012.97
2023-02-27T00:13:53.789Z,1012.98
2023-02-27T00:14:54.696Z,1012.97
2023-02-27T00:15:53.752Z,1013.03
2023-02-27T00:16:54.671Z,1013.03
2023-02-27T00:17:53.735Z,1013.02
2023-02-27T00:18:53.675Z,1013.00
2023-02-27T00:19:53.633Z,1013.06
2023-02-27T00:20:53.643Z,1013.13
2023-02-27T00:21:53.637Z,1013.06
2023-02-27T00:22:53.644Z,1013.16
2023-02-27T00:23:53.588Z,1013.14
2023-02-27T00:24:53.585Z,1013.20
2023-02-27T00:25:53.608Z,1013.14
2023-02-27T00:26:53.555Z,1013.16
2023-02-27T00:27:53.591Z,1013.15
2023-02-27T00:28:53.595Z,1013.14
2023-02-27T00:29:53.513Z,1013.20
2023-02-27T00:30:53.520Z,1013.21
2023-02-27T00:31:53.642Z,1013.22
2023-02-27T00:32:53.632Z,1013.20
2023-02-27T00:33:53.537Z,1013.26
2023-02-27T00:34:53.503Z,1013.28
2023-02-27T00:35:53.490Z,1013.26
2023-02-27T00:36:53.466Z,1013.29
2023-02-27T00:37:54.456Z,1013.30
2023-02-27T00:38:53.460Z,1013.31
2023-02-27T00:39:53.423Z,1013.24
2023-02-27T00:40:53.469Z,1013.29
2023-02-27T00:41:53.392Z,1013.25
2023-02-27T00:42:53.394Z,1013.27
2023-02-27T00:43:53.473Z,1013.25
2023-02-27T00:44:53.383Z,1013.33
2023-02-27T00:45:53.365Z,1013.29
2023-02-27T00:46:53.382Z,1013.31
2023-02-27T00:47:53.389Z,1013.22
2023-02-27T00:48:53.321Z,1013.23
2023-02-27T00:49:53.312Z,1013.28
2023-02-27T00:50:53.346Z,1013.25
2023-02-27T00:51:53.301Z,1013.28
2023-02-27T00:52:54.293Z,1013.23
2023-02-27T00:53:53.336Z,1013.21
2023-02-27T00:54:53.263Z,1013.18
2023-02-27T00:55:54.255Z,1013.20
2023-02-27T00:56:54.286Z,1013.23
2023-02-27T00:57:53.313Z,1013.15
2023-02-27T00:58:53.288Z,1013.15
2023-02-27T00:59:53.252Z,1013.21
2023-02-27T01:00:53.261Z,1013.17
2023-02-27T01:01:53.212Z,1013.14
2023-02-27T01:02:53.245Z,1013.12
2023-02-27T01:03:53.289Z,1013.12
2023-02-27T01:04:53.192Z,1013.09
2023-02-27T01:05:53.148Z,1013.11
2023-02-27T01:06:53.148Z,1013.06
2023-02-27T01:07:53.107Z,1013.12
2023-02-27T01:08:53.100Z,1013.08
2023-02-27T01:09:53.141Z,1013.12
2023-02-27T01:10:53.087Z,1013.06
2023-02-27T01:11:53.095Z,1013.07
2023-02-27T01:12:54.075Z,1013.13
2023-02-27T01:13:53.090Z,1013.10
2023-02-27T01:14:53.046Z,1013.10
2023-02-27T01:15:54.083Z,1013.16
2023-02-27T01:16:53.103Z,1013.12
2023-02-27T01:17:53.010Z,1013.15
2023-02-27T01:18:53.065Z,1013.11
2023-02-27T01:19:52.973Z,1013.14
2023-02-27T01:20:53.001Z,1013.13
2023-02-27T01:21:53.001Z,1013.14
2023-02-27T01:22:52.944Z,1013.17
2023-02-27T01:23:52.969Z,1013.11
2023-02-27T01:24:53.005Z,1013.09
2023-02-27T01:25:52.965Z,1013.12
2023-02-27T01:26:52.971Z,1013.11
2023-02-27T01:27:52.892Z,1013.12
2023-02-27T01:28:53.912Z,1013.16
2023-02-27T01:29:53.886Z,1013.14
2023-02-27T01:30:53.103Z,1013.06
2023-02-27T01:31:53.997Z,1013.16
2023-02-27T01:32:52.887Z,1013.10
2023-02-27T01:33:52.906Z,1013.07
2023-02-27T01:34:52.825Z,1013.13
2023-02-27T01:35:52.847Z,1013.13
2023-02-27T01:36:52.833Z,1013.13
2023-02-27T01:37:52.937Z,1013.09
2023-02-27T01:38:52.811Z,1013.17
2023-02-27T01:39:53.758Z,1013.13
2023-02-27T01:40:52.764Z,1013.14
2023-02-27T01:41:53.028Z,1013.18
2023-02-27T01:42:52.745Z,1013.15
2023-02-27T01:43:52.768Z,1013.17
2023-02-27T01:44:52.713Z,1013.18
2023-02-27T01:45:52.715Z,1013.16
2023-02-27T01:46:52.744Z,1013.13
2023-02-27T01:47:52.684Z,1013.14
2023-02-27T01:48:52.676Z,1013.19
2023-02-27T01:49:52.794Z,1013.21
2023-02-27T01:50:52.670Z,1013.18
2023-02-27T01:51:52.655Z,1013.18
2023-02-27T01:52:52.691Z,1013.17
2023-02-27T01:53:52.604Z,1013.23
2023-02-27T01:54:52.615Z,1013.20
2023-02-27T01:55:53.617Z,1013.14
2023-02-27T01:56:52.640Z,1013.23
2023-02-27T01:57:52.605Z,1013.24
2023-02-27T01:58:52.545Z,1013.24
2023-02-27T01:59:52.570Z,1013.25
2023-02-27T02:00:52.646Z,1013.24
2023-02-27T02:01:53.622Z,1013.31
2023-02-27T02:02:52.582Z,1013.28
2023-02-27T02:03:52.504Z,1013.33
2023-02-27T02:04:52.522Z,1013.24
2023-02-27T02:05:52.505Z,1013.28
2023-02-27T02:06:52.504Z,1013.31
2023-02-27T02:07:52.473Z,1013.28
2023-02-27T02:08:52.483Z,1013.26
2023-02-27T02:09:52.469Z,1013.26
2023-02-27T02:10:53.430Z,1013.34
2023-02-27T02:11:52.449Z,1013.31
2023-02-27T02:12:53.445Z,1013.40
2023-02-27T02:13:52.413Z,1013.30
2023-02-27T02:14:52.448Z,1013.32
2023-02-27T02:15:52.383Z,1013.33
2023-02-27T02:16:53.383Z,1013.32
2023-02-27T02:17:53.356Z,1013.34
2023-02-27T02:18:53.374Z,1013.31
2023-02-27T02:19:53.376Z,1013.32
2023-02-27T02:20:53.330Z,1013.34
2023-02-27T02:21:52.325Z,1013.27
2023-02-27T02:22:52.307Z,1013.34
2023-02-27T02:23:53.293Z,1013.25
2023-02-27T02:24:52.402Z,1013.29
2023-02-27T02:25:52.278Z,1013.26
2023-02-27T02:26:52.251Z,1013.32
2023-02-27T02:27:53.243Z,1013.22
2023-02-27T02:28:52.236Z,1013.22
2023-02-27T02:29:52.250Z,1013.24
2023-02-27T02:30:52.366Z,1013.19
2023-02-27T02:31:52.366Z,1013.15
2023-02-27T02:32:52.180Z,1013.14
2023-02-27T02:33:52.227Z,1013.14
2023-02-27T02:34:53.206Z,1013.18
2023-02-27T02:35:52.170Z,1013.15
2023-02-27T02:36:52.184Z,1013.13
2023-02-27T02:37:52.148Z,1013.16
2023-02-27T02:38:52.129Z,1013.10
2023-02-27T02:39:52.177Z,1013.13
2023-02-27T02:40:52.110Z,1013.16
2023-02-27T02:41:52.134Z,1013.16
2023-02-27T02:42:53.433Z,1013.18
2023-02-27T02:43:52.082Z,1013.17
2023-02-27T02:44:52.065Z,1013.18
2023-02-27T02:45:53.063Z,1013.20
2023-02-27T02:46:52.041Z,1013.16
2023-02-27T02:47:52.065Z,1013.20
2023-02-27T02:48:52.048Z,1013.13
2023-02-27T02:49:53.006Z,1013.18
2023-02-27T02:50:52.037Z,1013.18
2023-02-27T02:51:51.990Z,1013.17
2023-02-27T02:52:52.006Z,1013.19
2023-02-27T02:53:51.975Z,1013.21
2023-02-27T02:54:51.971Z,1013.25
2023-02-27T02:55:52.012Z,1013.26
2023-02-27T02:56:51.959Z,1013.29
2023-02-27T02:57:52.026Z,1013.34
2023-02-27T02:58:51.930Z,1013.31
2023-02-27T02:59:51.943Z,1013.32
2023-02-27T03:00:52.898Z,1013.36
2023-02-27T03:01:51.953Z,1013.27
2023-02-27T03:02:51.869Z,1013.27
2023-02-27T03:03:52.844Z,1013.32
2023-02-27T03:04:52.903Z,1013.31
2023-02-27T03:05:52.820Z,1013.27
2023-02-27T03:06:52.894Z,1013.28
2023-02-27T03:07:51.865Z,1013.33
2023-02-27T03:08:51.818Z,1013.32
2023-02-27T03:09:51.796Z,1013.32
2023-02-27T03:10:51.812Z,1013.29
2023-02-27T03:11:51.774Z,1013.29
2023-02-27T03:12:52.923Z,1013.33
2023-02-27T03:13:52.766Z,1013.31
2023-02-27T03:14:51.729Z,1013.27
2023-02-27T03:15:51.835Z,1013.31
2023-02-27T03:16:51.772Z,1013.33
2023-02-27T03:17:51.747Z,1013.31
2023-02-27T03:18:52.730Z,1013.36
2023-02-27T03:19:51.687Z,1013.37
2023-02-27T03:20:51.679Z,1013.38
2023-02-27T03:21:51.775Z,1013.31
2023-02-27T03:22:51.695Z,1013.35
2023-02-27T03:23:51.809Z,1013.32
2023-02-27T03:24:51.741Z,1013.30
2023-02-27T03:25:52.623Z,1013.31
2023-02-27T03:26:51.609Z,1013.37
2023-02-27T03:27:51.627Z,1013.36
2023-02-27T03:28:51.585Z,1013.35
2023-02-27T03:29:51.576Z,1013.36
2023-02-27T03:30:51.748Z,1013.39
2023-02-27T03:31:51.669Z,1013.41
2023-02-27T03:32:51.640Z,1013.42
2023-02-27T03:33:52.548Z,1013.35
2023-02-27T03:34:51.529Z,1013.40
2023-02-27T03:35:51.525Z,1013.39
2023-02-27T03:36:51.483Z,1013.43
2023-02-27T03:37:51.472Z,1013.38
2023-02-27T03:38:52.487Z,1013.42
2023-02-27T03:39:51.463Z,1013.41
2023-02-27T03:40:52.498Z,1013.44
2023-02-27T03:41:51.467Z,1013.43
2023-02-27T03:42:51.468Z,1013.47
2023-02-27T03:43:51.494Z,1013.47
2023-02-27T03:44:52.473Z,1013.50
2023-02-27T03:45:52.412Z,1013.42
2023-02-27T03:46:51.392Z,1013.53
2023-02-27T03:47:51.368Z,1013.50
2023-02-27T03:48:51.374Z,1013.53
2023-02-27T03:49:51.352Z,1013.49
2023-02-27T03:50:51.356Z,1013.55
2023-02-27T03:51:51.358Z,1013.49
2023-02-27T03:52:51.375Z,1013.47
2023-02-27T03:53:51.324Z,1013.54
2023-02-27T03:54:52.320Z,1013.49
2023-02-27T03:55:51.278Z,1013.47
2023-02-27T03:56:51.325Z,1013.53
2023-02-27T03:57:51.254Z,1013.50
2023-02-27T03:58:51.263Z,1013.53
2023-02-27T03:59:51.320Z,1013.57
2023-02-27T04:00:52.238Z,1013.52
2023-02-27T04:01:52.259Z,1013.57
2023-02-27T04:02:51.283Z,1013.58
2023-02-27T04:03:51.240Z,1013.62
2023-02-27T04:04:51.193Z,1013.62
2023-02-27T04:05:51.176Z,1013.69
2023-02-27T04:06:51.170Z,1013.69
2023-02-27T04:07:51.213Z,1013.66
2023-02-27T04:08:51.174Z,1013.72
2023-02-27T04:09:51.136Z,1013.65
2023-02-27T04:10:52.133Z,1013.70
2023-02-27T04:11:51.129Z,1013.70
2023-02-27T04:12:51.123Z,1013.80
2023-02-27T04:13:51.154Z,1013.77
2023-02-27T04:14:52.135Z,1013.76
2023-02-27T04:15:51.164Z,1013.78
2023-02-27T04:16:51.080Z,1013.81
2023-02-27T04:17:52.078Z,1013.84
2023-02-27T04:18:51.039Z,1013.77
2023-02-27T04:19:51.031Z,1013.77
2023-02-27T04:20:51.020Z,1013.78
2023-02-27T04:21:52.086Z,1013.80
2023-02-27T04:22:50.995Z,1013.81
2023-02-27T04:23:51.020Z,1013.88
2023-02-27T04:24:51.983Z,1013.78
2023-02-27T04:25:50.971Z,1013.88
2023-02-27T04:26:50.963Z,1013.87
2023-02-27T04:27:51.029Z,1013.86
2023-02-27T04:28:50.939Z,1013.91
2023-02-27T04:29:50.967Z,1013.84
2023-02-27T04:30:51.012Z,1013.83
2023-02-27T04:31:51.093Z,1013.84
2023-02-27T04:32:50.955Z,1013.93
2023-02-27T04:33:51.904Z,1013.87
2023-02-27T04:34:51.903Z,1013.90
2023-02-27T04:35:50.864Z,1013.92
2023-02-27T04:36:50.896Z,1013.95
2023-02-27T04:37:58.533Z,1014.02
2023-02-27T04:38:51.834Z,1013.95
2023-02-27T04:39:51.932Z,1013.98
2023-02-27T04:40:50.839Z,1013.99
2023-02-27T04:41:50.809Z,1014.00
2023-02-27T04:42:50.845Z,1014.01
2023-02-27T04:43:50.795Z,1013.98
2023-02-27T04:44:51.773Z,1014.01
2023-02-27T04:45:50.890Z,1013.95
2023-02-27T04:46:51.763Z,1013.98
2023-02-27T04:47:50.736Z,1014.02
2023-02-27T04:48:50.843Z,1013.98
2023-02-27T04:49:51.705Z,1014.03
2023-02-27T04:50:51.712Z,1014.03
2023-02-27T04:51:50.702Z,1014.06
2023-02-27T04:52:50.699Z,1013.96
2023-02-27T04:53:50.722Z,1014.00
2023-02-27T04:54:51.680Z,1014.02
2023-02-27T04:55:51.696Z,1014.04
2023-02-27T04:56:51.730Z,1014.00
2023-02-27T04:57:51.636Z,1014.09
2023-02-27T04:58:50.638Z,1013.99
2023-02-27T04:59:51.652Z,1014.02
2023-02-27T05:00:50.615Z,1014.05
2023-02-27T05:01:50.659Z,1014.03
2023-02-27T05:02:50.686Z,1014.04
2023-02-27T05:03:50.610Z,1014.06
2023-02-27T05:04:50.588Z,1014.05
2023-02-27T05:05:50.550Z,1014.03
2023-02-27T05:06:50.526Z,1014.12
2023-02-27T05:07:51.520Z,1014.05
2023-02-27T05:08:50.514Z,1014.05
2023-02-27T05:09:51.537Z,1014.05
2023-02-27T05:10:51.474Z,1014.07
2023-02-27T05:11:50.469Z,1014.03
2023-02-27T05:12:50.458Z,1014.05
2023-02-27T05:13:50.468Z,1014.01
2023-02-27T05:14:50.589Z,1014.05
2023-02-27T05:15:50.517Z,1014.11
2023-02-27T05:16:50.487Z,1014.12
2023-02-27T05:17:50.456Z,1014.13
2023-02-27T05:18:50.402Z,1014.07
2023-02-27T05:19:50.397Z,1014.12
2023-02-27T05:20:50.410Z,1014.11
2023-02-27T05:21:51.397Z,1014.02
2023-02-27T05:22:50.347Z,1014.09
2023-02-27T05:23:50.350Z,1014.01
2023-02-27T05:24:50.396Z,1014.11
2023-02-27T05:25:50.328Z,1014.10
2023-02-27T05:26:50.323Z,1014.12
2023-02-27T05:27:50.331Z,1014.10
2023-02-27T05:28:50.302Z,1014.05
2023-02-27T05:29:50.328Z,1014.05
2023-02-27T05:30:50.321Z,1014.09
2023-02-27T05:31:50.446Z,1014.11
2023-02-27T05:32:50.272Z,1014.10
2023-02-27T05:33:50.257Z,1014.12
2023-02-27T05:34:50.269Z,1014.13
2023-02-27T05:35:51.350Z,1014.09
2023-02-27T05:36:51.247Z,1014.11
2023-02-27T05:37:50.185Z,1014.11
2023-02-27T05:38:50.192Z,1014.11
2023-02-27T05:39:50.188Z,1014.21
2023-02-27T05:40:50.151Z,1014.23
2023-02-27T05:41:51.233Z,1014.18
2023-02-27T05:42:50.163Z,1014.26
2023-02-27T05:43:50.128Z,1014.22
2023-02-27T05:44:50.126Z,1014.26
2023-02-27T05:45:50.170Z,1014.33
2023-02-27T05:46:50.142Z,1014.27
2023-02-27T05:47:50.077Z,1014.28
2023-02-27T05:48:50.158Z,1014.28
2023-02-27T05:49:50.062Z,1014.31
2023-02-27T05:50:50.059Z,1014.32
2023-02-27T05:51:50.078Z,1014.34
2023-02-27T05:52:50.037Z,1014.31
2023-02-27T05:53:50.010Z,1014.33
2023-02-27T05:54:51.064Z,1014.29
2023-02-27T05:55:49.988Z,1014.31
2023-02-27T05:56:50.989Z,1014.27
2023-02-27T05:57:50.968Z,1014.31
2023-02-27T05:58:49.966Z,1014.34
2023-02-27T05:59:49.979Z,1014.29
2023-02-27T06:00:50.038Z,1014.29
2023-02-27T06:01:49.964Z,1014.30
2023-02-27T06:02:49.985Z,1014.31
2023-02-27T06:03:50.911Z,1014.33
2023-02-27T06:04:49.925Z,1014.30
2023-02-27T06:05:49.883Z,1014.31
2023-02-27T06:06:49.898Z,1014.30
2023-02-27T06:07:50.901Z,1014.29
2023-02-27T06:08:50.869Z,1014.32
2023-02-27T06:09:49.870Z,1014.40
2023-02-27T06:10:49.871Z,1014.36
2023-02-27T06:11:49.818Z,1014.39
2023-02-27T06:12:49.819Z,1014.41
2023-02-27T06:13:49.826Z,1014.42
2023-02-27T06:14:50.831Z,1014.40
2023-02-27T06:15:49.780Z,1014.43
2023-02-27T06:16:49.917Z,1014.45
2023-02-27T06:17:49.770Z,1014.46
2023-02-27T06:18:49.762Z,1014.44
2023-02-27T06:19:49.783Z,1014.46
2023-02-27T06:20:49.757Z,1014.51
2023-02-27T06:21:49.726Z,1014.45
2023-02-27T06:22:49.732Z,1014.55
2023-02-27T06:23:49.752Z,1014.51
2023-02-27T06:24:49.691Z,1014.55
2023-02-27T06:25:49.682Z,1014.63
2023-02-27T06:26:49.685Z,1014.62
2023-02-27T06:27:49.701Z,1014.59
2023-02-27T06:28:49.664Z,1014.55
2023-02-27T06:29:50.639Z,1014.53
2023-02-27T06:30:49.666Z,1014.57
2023-02-27T06:31:50.669Z,1014.60
2023-02-27T06:32:49.612Z,1014.55
2023-02-27T06:33:49.594Z,1014.55
2023-02-27T06:34:49.624Z,1014.58
2023-02-27T06:35:49.637Z,1014.56
2023-02-27T06:36:49.668Z,1014.60
2023-02-27T06:37:49.558Z,1014.55
2023-02-27T06:38:49.546Z,1014.63
2023-02-27T06:39:49.531Z,1014.63
2023-02-27T06:40:50.527Z,1014.67
2023-02-27T06:41:49.624Z,1014.63
2023-02-27T06:42:49.480Z,1014.68
2023-02-27T06:43:49.493Z,1014.70
2023-02-27T06:44:49.490Z,1014.65
2023-02-27T06:45:49.495Z,1014.68
2023-02-27T06:46:49.453Z,1014.75
2023-02-27T06:47:49.517Z,1014.71
2023-02-27T06:48:49.414Z,1014.73
2023-02-27T06:49:49.427Z,1014.81
2023-02-27T06:50:50.413Z,1014.77
2023-02-27T06:51:49.423Z,1014.80
2023-02-27T06:52:49.508Z,1014.81
2023-02-27T06:53:49.469Z,1014.86
2023-02-27T06:54:49.348Z,1014.86
2023-02-27T06:55:50.357Z,1014.84
2023-02-27T06:56:49.345Z,1014.85
2023-02-27T06:57:49.362Z,1014.83
2023-02-27T06:58:49.311Z,1014.83
2023-02-27T06:59:49.366Z,1014.88
2023-02-27T07:00:49.293Z,1014.88
2023-02-27T07:01:50.271Z,1014.87
2023-02-27T07:02:49.304Z,1014.84
2023-02-27T07:03:50.296Z,1014.88
2023-02-27T07:04:49.309Z,1014.90
2023-02-27T07:05:50.269Z,1014.90
2023-02-27T07:07:35.073Z,1014.95
2023-02-27T07:07:50.210Z,1014.92
2023-02-27T07:09:01.798Z,1014.96
2023-02-27T07:09:50.194Z,1014.92
2023-02-27T07:10:49.311Z,1014.82
2023-02-27T07:11:49.211Z,1014.80
2023-02-27T07:12:49.198Z,1014.80
2023-02-27T07:13:49.161Z,1014.79
2023-02-27T07:14:49.152Z,1014.80
2023-02-27T07:15:49.259Z,1014.82
2023-02-27T07:16:49.124Z,1014.82
2023-02-27T07:17:49.127Z,1014.87
2023-02-27T07:18:50.130Z,1014.85
2023-02-27T07:19:49.101Z,1014.82
2023-02-27T07:20:49.161Z,1014.86
2023-02-27T07:21:49.078Z,1014.89
2023-02-27T07:22:49.101Z,1014.86
2023-02-27T07:23:50.061Z,1014.90
2023-02-27T07:24:50.076Z,1014.88
2023-02-27T07:25:49.043Z,1014.87
2023-02-27T07:26:49.018Z,1014.90
2023-02-27T07:27:49.026Z,1014.90
2023-02-27T07:28:49.997Z,1014.85
2023-02-27T07:29:49.009Z,1014.78
2023-02-27T07:30:50.053Z,1014.83
2023-02-27T07:31:49.071Z,1014.93
2023-02-27T07:32:48.957Z,1014.89
2023-02-27T07:33:48.957Z,1014.88
2023-02-27T07:34:48.928Z,1014.87
2023-02-27T07:35:48.990Z,1014.86
2023-02-27T07:36:49.937Z,1014.89
2023-02-27T07:37:48.938Z,1014.87
2023-02-27T07:38:48.891Z,1014.85
2023-02-27T07:39:48.902Z,1014.93
2023-02-27T07:40:48.882Z,1014.89
2023-02-27T07:41:48.872Z,1014.84
2023-02-27T07:42:48.916Z,1014.91
2023-02-27T07:43:49.836Z,1014.84
2023-02-27T07:44:48.812Z,1014.92
2023-02-27T07:45:48.802Z,1014.85
2023-02-27T07:46:48.961Z,1014.87
2023-02-27T07:47:48.816Z,1014.88
2023-02-27T07:48:49.817Z,1014.87
2023-02-27T07:49:49.770Z,1014.87
2023-02-27T07:50:48.764Z,1014.85
2023-02-27T07:51:49.734Z,1014.86
2023-02-27T07:52:48.801Z,1014.89
2023-02-27T07:53:48.750Z,1014.86
2023-02-27T07:54:48.729Z,1014.86
2023-02-27T07:55:49.693Z,1014.84
2023-02-27T07:56:49.708Z,1014.85
2023-02-27T07:57:48.692Z,1014.87
2023-02-27T07:58:48.712Z,1014.93
2023-02-27T07:59:48.707Z,1014.99
2023-02-27T08:00:48.655Z,1014.93
2023-02-27T08:01:48.632Z,1014.89
2023-02-27T08:02:48.713Z,1014.94
2023-02-27T08:03:48.622Z,1014.85
2023-02-27T08:04:48.874Z,1014.97
2023-02-27T08:05:48.607Z,1014.87
2023-02-27T08:06:48.602Z,1014.83
2023-02-27T08:07:48.570Z,1014.91
2023-02-27T08:08:48.554Z,1014.87
2023-02-27T08:09:48.618Z,1014.86
2023-02-27T08:10:48.677Z,1014.92
2023-02-27T08:11:49.550Z,1014.95
2023-02-27T08:12:48.545Z,1014.98
2023-02-27T08:13:59.985Z,1015.02
2023-02-27T08:14:49.504Z,1015.00
2023-02-27T08:15:48.508Z,1015.03
2023-02-27T08:16:48.604Z,1015.00
2023-02-27T08:17:48.473Z,1015.03
2023-02-27T08:18:49.484Z,1015.12
2023-02-27T08:19:48.440Z,1015.12
2023-02-27T08:20:48.434Z,1015.11
2023-02-27T08:21:48.419Z,1015.08
2023-02-27T08:22:48.411Z,1015.10
2023-02-27T08:23:48.426Z,1015.13
2023-02-27T08:24:48.383Z,1015.23
2023-02-27T08:25:48.370Z,1015.28
2023-02-27T08:26:49.358Z,1015.18
2023-02-27T08:27:48.377Z,1015.24
2023-02-27T08:28:48.570Z,1015.17
2023-02-27T08:29:48.396Z,1015.12
2023-02-27T08:30:48.312Z,1015.21
2023-02-27T08:31:48.478Z,1015.13
2023-02-27T08:32:48.297Z,1015.18
2023-02-27T08:33:49.625Z,1015.22
2023-02-27T08:34:48.432Z,1015.19
2023-02-27T08:35:48.289Z,1015.21
2023-02-27T08:36:48.294Z,1015.18
2023-02-27T08:37:48.254Z,1015.13
2023-02-27T08:38:48.232Z,1015.13
2023-02-27T08:39:48.312Z,1015.14
2023-02-27T08:40:48.318Z,1015.17
2023-02-27T08:41:48.215Z,1015.18
2023-02-27T08:42:48.210Z,1015.14
2023-02-27T08:43:48.163Z,1015.20
2023-02-27T08:44:48.260Z,1015.16
2023-02-27T08:45:48.219Z,1015.15
2023-02-27T08:46:49.376Z,1015.20
2023-02-27T08:47:48.136Z,1015.23
2023-02-27T08:48:48.110Z,1015.26
2023-02-27T08:49:48.117Z,1015.24
2023-02-27T08:50:48.129Z,1015.23
2023-02-27T08:51:48.739Z,1015.26
2023-02-27T08:52:48.196Z,1015.33
2023-02-27T08:53:48.053Z,1015.32
2023-02-27T08:54:48.045Z,1015.28
2023-02-27T08:55:48.045Z,1015.38
2023-02-27T08:56:48.046Z,1015.37
2023-02-27T08:57:48.042Z,1015.32
2023-02-27T08:58:48.282Z,1015.32
2023-02-27T08:59:48.068Z,1015.34
2023-02-27T09:00:49.007Z,1015.25
2023-02-27T09:01:47.978Z,1015.26
2023-02-27T09:02:48.045Z,1015.29
2023-02-27T09:03:47.973Z,1015.21
2023-02-27T09:04:49.036Z,1015.25
2023-02-27T09:05:47.921Z,1015.29
2023-02-27T09:06:47.922Z,1015.27
2023-02-27T09:07:47.910Z,1015.29
2023-02-27T09:08:47.906Z,1015.31
2023-02-27T09:09:50.092Z,1015.29
2023-02-27T09:10:48.064Z,1015.30
2023-02-27T09:11:47.893Z,1015.28
2023-02-27T09:12:47.843Z,1015.28
2023-02-27T09:13:47.838Z,1015.31
2023-02-27T09:14:47.857Z,1015.37
2023-02-27T09:15:47.891Z,1015.32
2023-02-27T09:16:47.907Z,1015.35
2023-02-27T09:17:47.802Z,1015.39
2023-02-27T09:18:48.804Z,1015.34
2023-02-27T09:19:47.814Z,1015.26
2023-02-27T09:20:48.777Z,1015.27
2023-02-27T09:21:47.765Z,1015.32
2023-02-27T09:22:48.827Z,1015.27
2023-02-27T09:23:47.725Z,1015.26
2023-02-27T09:24:47.730Z,1015.25
2023-02-27T09:25:48.707Z,1015.32
2023-02-27T09:26:49.029Z,1015.33
2023-02-27T09:27:47.686Z,1015.32
2023-02-27T09:28:47.806Z,1015.30
2023-02-27T09:29:47.706Z,1015.35
2023-02-27T09:30:47.674Z,1015.36
2023-02-27T09:31:47.852Z,1015.31
2023-02-27T09:32:48.702Z,1015.30
2023-02-27T09:33:47.686Z,1015.34
2023-02-27T09:34:47.607Z,1015.35
2023-02-27T09:35:47.675Z,1015.37
2023-02-27T09:36:47.587Z,1015.44
2023-02-27T09:37:47.594Z,1015.47
2023-02-27T09:38:47.668Z,1015.35
2023-02-27T09:39:47.611Z,1015.39
2023-02-27T09:40:47.589Z,1015.36
2023-02-27T09:41:48.559Z,1015.40
2023-02-27T09:42:47.536Z,1015.40
2023-02-27T09:43:47.507Z,1015.46
2023-02-27T09:44:47.798Z,1015.40
2023-02-27T09:45:47.575Z,1015.40
2023-02-27T09:46:47.473Z,1015.44
2023-02-27T09:47:47.491Z,1015.49
2023-02-27T09:48:47.615Z,1015.42
2023-02-27T09:49:47.589Z,1015.47
2023-02-27T09:50:47.445Z,1015.49
2023-02-27T09:51:47.444Z,1015.46
2023-02-27T09:52:47.421Z,1015.43
2023-02-27T09:53:47.434Z,1015.45
2023-02-27T09:54:47.402Z,1015.43
2023-02-27T09:55:47.501Z,1015.50
2023-02-27T09:56:47.386Z,1015.53
2023-02-27T09:57:48.364Z,1015.52
2023-02-27T09:58:47.359Z,1015.49
2023-02-27T09:59:48.326Z,1015.50
2023-02-27T10:00:47.361Z,1015.52
2023-02-27T10:01:47.379Z,1015.50
2023-02-27T10:02:47.325Z,1015.52
2023-02-27T10:03:48.302Z,1015.56
2023-02-27T10:04:48.291Z,1015.55
2023-02-27T10:05:47.265Z,1015.52
2023-02-27T10:06:47.312Z,1015.53
2023-02-27T10:07:47.276Z,1015.48
2023-02-27T10:08:48.244Z,1015.53
2023-02-27T10:09:47.259Z,1015.56
2023-02-27T10:10:48.229Z,1015.58
2023-02-27T10:11:47.220Z,1015.55
2023-02-27T10:12:48.206Z,1015.59
2023-02-27T10:13:47.245Z,1015.53
2023-02-27T10:14:48.208Z,1015.49
2023-02-27T10:15:47.177Z,1015.54
2023-02-27T10:16:47.169Z,1015.48
2023-02-27T10:17:47.148Z,1015.54
2023-02-27T10:18:48.159Z,1015.50
2023-02-27T10:19:48.355Z,1015.52
2023-02-27T10:20:47.123Z,1015.55
2023-02-27T10:21:47.118Z,1015.61
2023-02-27T10:22:47.095Z,1015.54
2023-02-27T10:23:47.085Z,1015.51
2023-02-27T10:24:48.066Z,1015.57
2023-02-27T10:25:47.241Z,1015.51
2023-02-27T10:26:47.063Z,1015.51
2023-02-27T10:27:47.050Z,1015.51
2023-02-27T10:28:47.033Z,1015.51
2023-02-27T10:29:48.034Z,1015.54
2023-02-27T10:30:47.061Z,1015.46
2023-02-27T10:31:47.271Z,1015.51
2023-02-27T10:32:46.991Z,1015.48
2023-02-27T10:33:46.967Z,1015.57
2023-02-27T10:34:46.956Z,1015.54
2023-02-27T10:35:47.981Z,1015.51
2023-02-27T10:36:46.986Z,1015.57
2023-02-27T10:37:47.106Z,1015.58
2023-02-27T10:38:46.911Z,1015.63
2023-02-27T10:39:46.896Z,1015.56
2023-02-27T10:40:47.904Z,1015.70
2023-02-27T10:41:46.890Z,1015.58
2023-02-27T10:42:46.879Z,1015.57
2023-02-27T10:43:48.014Z,1015.62
2023-02-27T10:44:46.839Z,1015.60
2023-02-27T10:45:46.828Z,1015.64
2023-02-27T10:46:46.879Z,1015.64
2023-02-27T10:47:46.848Z,1015.67
2023-02-27T10:48:46.808Z,1015.63
2023-02-27T10:49:46.848Z,1015.71
2023-02-27T10:50:46.772Z,1015.70
2023-02-27T10:51:46.791Z,1015.69
2023-02-27T10:52:46.803Z,1015.63
2023-02-27T10:53:46.779Z,1015.69
2023-02-27T10:54:46.741Z,1015.71
2023-02-27T10:55:47.753Z,1015.67
2023-02-27T10:56:46.706Z,1015.60
2023-02-27T10:57:46.718Z,1015.66
2023-02-27T10:58:46.685Z,1015.59
2023-02-27T10:59:46.694Z,1015.57
2023-02-27T11:00:46.681Z,1015.60
2023-02-27T11:01:46.803Z,1015.64
2023-02-27T11:02:46.640Z,1015.62
2023-02-27T11:03:46.650Z,1015.60
2023-02-27T11:04:47.701Z,1015.58
2023-02-27T11:05:46.609Z,1015.61
2023-02-27T11:06:46.676Z,1015.60
2023-02-27T11:07:47.747Z,1015.56
2023-02-27T11:08:50.236Z,1015.62
2023-02-27T11:09:46.575Z,1015.59
2023-02-27T11:10:46.561Z,1015.53
2023-02-27T11:11:46.543Z,1015.53
2023-02-27T11:12:47.573Z,1015.51
2023-02-27T11:13:46.562Z,1015.61
2023-02-27T11:14:46.559Z,1015.55
2023-02-27T11:15:46.554Z,1015.53
2023-02-27T11:16:46.512Z,1015.52
2023-02-27T11:17:46.520Z,1015.53
2023-02-27T11:18:46.477Z,1015.46
2023-02-27T11:19:47.469Z,1015.56
2023-02-27T11:20:46.470Z,1015.52
2023-02-27T11:21:47.471Z,1015.53
2023-02-27T11:22:46.449Z,1015.42
2023-02-27T11:23:47.436Z,1015.48
2023-02-27T11:24:46.467Z,1015.51
2023-02-27T11:25:46.414Z,1015.53
2023-02-27T11:26:46.440Z,1015.49
2023-02-27T11:27:46.425Z,1015.47
2023-02-27T11:28:46.393Z,1015.49
2023-02-27T11:29:47.422Z,1015.38
2023-02-27T11:30:46.404Z,1015.46
2023-02-27T11:31:46.372Z,1015.40
2023-02-27T11:32:46.444Z,1015.41
2023-02-27T11:33:46.321Z,1015.41
2023-02-27T11:34:46.299Z,1015.47
2023-02-27T11:35:46.424Z,1015.45
2023-02-27T11:36:46.298Z,1015.42
2023-02-27T11:37:47.263Z,1015.32
2023-02-27T11:38:46.261Z,1015.41
2023-02-27T11:39:46.276Z,1015.42
2023-02-27T11:40:46.259Z,1015.40
2023-02-27T11:41:46.238Z,1015.42
2023-02-27T11:42:47.220Z,1015.38
2023-02-27T11:43:46.213Z,1015.38
2023-02-27T11:44:50.763Z,1015.43
2023-02-27T11:46:12.169Z,1015.36
2023-02-27T11:46:48.787Z,1015.30
2023-02-27T11:47:47.154Z,1015.34
2023-02-27T11:48:47.164Z,1015.35
2023-02-27T11:49:46.148Z,1015.29
2023-02-27T11:50:46.149Z,1015.27
2023-02-27T11:51:46.124Z,1015.32
2023-02-27T11:52:46.128Z,1015.26
2023-02-27T11:53:46.103Z,1015.24
2023-02-27T11:54:47.089Z,1015.29
2023-02-27T11:55:47.074Z,1015.20
2023-02-27T11:56:47.114Z,1015.23
2023-02-27T11:57:46.078Z,1015.31
2023-02-27T11:58:46.037Z,1015.23
2023-02-27T11:59:46.057Z,1015.20
2023-02-27T12:00:46.016Z,1015.20
2023-02-27T12:01:46.067Z,1015.21
2023-02-27T12:02:46.049Z,1015.21
2023-02-27T12:03:46.061Z,1015.20
2023-02-27T12:04:45.993Z,1015.17
2023-02-27T12:05:46.953Z,1015.17